createdAt,value
2018-07-09T00:03:20.597Z,6.57
2018-07-09T00:08:17.852Z,6.03
2018-07-09T00:13:15.080Z,6.40
2018-07-09T00:18:11.846Z,6.70
2018-07-09T00:23:09.075Z,6.70
2018-07-09T00:28:05.855Z,6.90
2018-07-09T00:33:02.927Z,6.80
2018-07-09T00:37:59.677Z,6.57
2018-07-09T00:42:56.868Z,6.50
2018-07-09T00:47:53.771Z,6.37
2018-07-09T00:52:50.866Z,7.00
2018-07-09T00:57:48.428Z,6.87
2018-07-09T01:02:45.419Z,6.73
2018-07-09T01:07:42.217Z,7.50
2018-07-09T01:12:39.340Z,7.30
2018-07-09T01:17:36.201Z,7.30
2018-07-09T01:22:33.250Z,10.33
2018-07-09T01:27:30.416Z,8.73
2018-07-09T01:32:27.154Z,8.07
2018-07-09T01:37:24.239Z,7.77
2018-07-09T01:42:21.038Z,7.53
2018-07-09T01:47:18.281Z,6.87
2018-07-09T01:52:15.089Z,8.00
2018-07-09T01:57:12.412Z,7.37
2018-07-09T02:02:09.681Z,7.23
2018-07-09T02:07:06.593Z,7.80
2018-07-09T02:12:03.716Z,7.70
2018-07-09T02:17:01.066Z,7.30
2018-07-09T02:21:57.805Z,7.07
2018-07-09T02:26:54.786Z,7.00
2018-07-09T02:31:52.057Z,7.77
2018-07-09T02:36:48.891Z,8.00
2018-07-09T02:41:46.019Z,8.37
2018-07-09T02:46:42.802Z,8.10
2018-07-09T02:51:39.907Z,8.00
2018-07-09T02:56:37.489Z,7.70
2018-07-09T03:01:34.466Z,8.17
2018-07-09T03:06:31.289Z,8.03
2018-07-09T03:11:28.199Z,7.93
2018-07-09T03:16:25.344Z,8.43
2018-07-09T03:21:22.175Z,7.57
2018-07-09T03:26:19.267Z,7.63
2018-07-09T03:31:16.333Z,7.90
2018-07-09T03:36:13.304Z,8.43
2018-07-09T03:41:10.070Z,7.97
2018-07-09T03:46:07.220Z,8.33
2018-07-09T03:51:04.271Z,8.93
2018-07-09T03:56:01.908Z,9.60
2018-07-09T04:01:00.969Z,8.67
2018-07-09T04:05:57.760Z,8.67
2018-07-09T04:10:54.768Z,8.53
2018-07-09T04:15:52.083Z,8.13
2018-07-09T04:20:49.274Z,8.00
2018-07-09T04:25:46.197Z,8.63
2018-07-09T04:30:43.275Z,8.50
2018-07-09T04:35:40.085Z,8.80
2018-07-09T04:40:37.285Z,8.70
2018-07-09T04:45:34.081Z,7.83
2018-07-09T04:50:30.945Z,7.93
2018-07-09T04:55:27.792Z,8.47
2018-07-09T05:00:24.823Z,9.70
2018-07-09T05:05:22.017Z,8.23
2018-07-09T05:10:19.165Z,8.67
2018-07-09T05:15:15.952Z,9.40
2018-07-09T05:20:12.990Z,9.83
2018-07-09T05:25:09.720Z,9.30
2018-07-09T05:30:07.012Z,9.07
2018-07-09T05:35:03.988Z,9.50
2018-07-09T05:40:00.830Z,9.27
2018-07-09T05:44:58.227Z,9.27
2018-07-09T05:49:55.169Z,9.67
2018-07-09T05:54:52.227Z,9.83
2018-07-09T05:59:49.186Z,10.10
2018-07-09T06:04:45.952Z,9.30
2018-07-09T06:09:43.029Z,10.00
2018-07-09T06:14:39.827Z,9.45
2018-07-09T06:19:37.056Z,8.28
2018-07-09T06:24:33.866Z,8.85
2018-07-09T06:29:30.954Z,8.55
2018-07-09T06:34:28.045Z,9.25
2018-07-09T06:39:24.889Z,9.10
2018-07-09T06:44:21.965Z,8.05
2018-07-09T06:49:19.132Z,7.97
2018-07-09T06:54:16.137Z,7.20
2018-07-09T06:59:13.355Z,7.72
2018-07-09T07:04:10.399Z,8.00
2018-07-09T07:09:07.515Z,6.35
2018-07-09T07:14:04.315Z,7.00
2018-07-09T07:19:02.863Z,6.58
2018-07-09T07:23:59.612Z,6.50
2018-07-09T07:28:57.014Z,6.40
2018-07-09T07:33:53.857Z,6.42
2018-07-09T07:38:51.067Z,6.03
2018-07-09T07:43:47.932Z,6.10
2018-07-09T07:48:45.381Z,5.97
2018-07-09T07:53:42.147Z,7.25
2018-07-09T07:58:38.996Z,6.33
2018-07-09T08:03:35.559Z,6.28
2018-07-09T08:08:32.875Z,5.95
2018-07-09T08:13:30.026Z,6.10
2018-07-09T08:18:27.311Z,6.42
2018-07-09T08:40:06.384Z,6.75
2018-07-09T08:45:03.332Z,6.75
2018-07-09T08:50:00.313Z,7.80
2018-07-09T08:54:57.247Z,7.05
2018-07-09T08:59:54.182Z,7.53
2018-07-09T09:04:51.494Z,7.87
2018-07-09T09:09:48.236Z,7.80
2018-07-09T09:14:45.445Z,7.72
2018-07-09T09:19:42.390Z,8.30
2018-07-09T09:24:39.400Z,8.15
2018-07-09T09:29:36.935Z,7.12
2018-07-09T09:34:33.758Z,6.85
2018-07-09T09:39:30.740Z,7.97
2018-07-09T09:44:27.661Z,7.45
2018-07-09T09:49:24.784Z,6.95
2018-07-09T09:54:21.811Z,6.25
2018-07-09T09:59:18.814Z,5.80
2018-07-09T10:04:15.710Z,6.58
2018-07-09T10:09:12.743Z,5.80
2018-07-09T10:14:09.504Z,5.50
2018-07-09T10:19:06.567Z,5.35
2018-07-09T10:24:03.623Z,5.85
2018-07-09T10:29:00.457Z,4.92
2018-07-09T10:33:58.233Z,4.85
2018-07-09T10:38:55.072Z,4.20
2018-07-09T10:43:52.174Z,4.33
2018-07-09T10:48:49.154Z,3.87
2018-07-09T10:53:46.222Z,4.30
2018-07-09T10:58:43.375Z,4.55
2018-07-09T11:03:40.113Z,4.40
2018-07-09T11:08:37.404Z,4.00
2018-07-09T11:13:34.414Z,3.80
2018-07-09T11:18:31.633Z,3.95
2018-07-09T11:23:28.381Z,4.55
2018-07-09T11:28:25.442Z,3.98
2018-07-09T11:33:22.278Z,4.37
2018-07-09T11:38:19.702Z,4.65
2018-07-09T11:43:16.468Z,4.47
2018-07-09T11:48:13.512Z,5.10
2018-07-09T11:53:10.315Z,4.35
2018-07-09T11:58:07.122Z,3.90
2018-07-09T12:03:04.399Z,3.60
2018-07-09T12:08:01.501Z,3.72
2018-07-09T12:12:58.736Z,3.45
2018-07-09T12:17:55.475Z,3.65
2018-07-09T12:22:52.966Z,3.95
2018-07-09T12:27:49.934Z,4.30
2018-07-09T12:32:46.791Z,5.08
2018-07-09T12:37:43.690Z,4.87
2018-07-09T12:42:40.479Z,6.92
2018-07-09T12:47:37.570Z,5.97
2018-07-09T12:52:34.410Z,4.10
2018-07-09T12:57:31.406Z,6.80
2018-07-09T13:02:28.214Z,4.28
2018-07-09T13:07:25.331Z,5.85
2018-07-09T13:12:27.817Z,7.53
2018-07-09T13:17:24.743Z,5.80
2018-07-09T13:22:21.749Z,5.00
2018-07-09T13:27:18.905Z,6.00
2018-07-09T13:32:15.687Z,12.47
2018-07-09T13:37:13.378Z,4.22
2018-07-09T13:42:10.180Z,4.47
2018-07-09T13:47:07.254Z,4.28
2018-07-09T13:52:04.033Z,4.40
2018-07-09T13:57:01.490Z,3.67
2018-07-09T14:01:58.553Z,3.70
2018-07-09T14:06:55.389Z,3.60
2018-07-09T14:11:52.581Z,3.33
2018-07-09T14:16:49.611Z,3.67
2018-07-09T14:21:46.698Z,3.70
2018-07-09T14:26:43.810Z,10.65
2018-07-09T14:31:40.943Z,5.20
2018-07-09T14:36:37.978Z,4.08
2018-07-09T14:41:35.692Z,3.52
2018-07-09T14:46:32.609Z,3.52
2018-07-09T14:51:29.759Z,3.30
2018-07-09T14:56:26.488Z,4.25
2018-07-09T15:01:23.650Z,3.90
2018-07-09T15:06:20.715Z,4.85
2018-07-09T15:11:17.563Z,3.50
2018-07-09T15:16:14.631Z,4.45
2018-07-09T15:21:12.076Z,3.20
2018-07-09T15:26:08.815Z,8.65
2018-07-09T15:31:06.221Z,3.45
2018-07-09T15:36:03.041Z,3.55
2018-07-09T15:41:05.350Z,2.83
2018-07-09T15:46:03.754Z,2.90
2018-07-09T15:51:01.667Z,3.67
2018-07-09T15:55:58.412Z,3.50
2018-07-09T16:00:55.320Z,3.55
2018-07-09T16:05:52.433Z,3.10
2018-07-09T16:10:49.257Z,3.10
2018-07-09T16:15:46.432Z,3.70
2018-07-09T16:20:43.828Z,2.83
2018-07-09T16:25:40.636Z,2.90
2018-07-09T16:30:37.637Z,8.03
2018-07-09T16:35:34.544Z,2.60
2018-07-09T16:40:31.966Z,3.00
2018-07-09T16:45:29.096Z,4.17
2018-07-09T16:50:26.311Z,2.58
2018-07-09T16:55:23.093Z,4.22
2018-07-09T17:00:20.154Z,3.00
2018-07-09T17:05:17.199Z,2.30
2018-07-09T17:10:14.273Z,2.67
2018-07-09T17:15:11.327Z,1.67
2018-07-09T17:20:08.800Z,2.00
2018-07-09T17:25:06.064Z,2.00
2018-07-09T17:30:03.235Z,4.70
2018-07-09T17:35:00.053Z,2.72
2018-07-09T17:39:57.169Z,2.77
2018-07-09T17:44:54.079Z,3.05
2018-07-09T17:49:51.305Z,3.85
2018-07-09T17:54:48.367Z,2.35
2018-07-09T17:59:45.424Z,1.80
2018-07-09T18:04:42.173Z,8.73
2018-07-09T18:09:39.214Z,2.60
2018-07-09T18:14:36.309Z,2.20
2018-07-09T18:19:33.716Z,2.10
2018-07-09T18:24:31.222Z,2.10
2018-07-09T18:29:28.224Z,2.47
2018-07-09T18:34:25.019Z,2.47
2018-07-09T18:39:22.148Z,2.42
2018-07-09T18:44:19.516Z,4.55
2018-07-09T18:49:15.936Z,2.27
2018-07-09T18:54:13.037Z,2.72
2018-07-09T18:59:09.859Z,2.58
2018-07-09T19:04:06.961Z,2.22
2018-07-09T19:09:04.458Z,2.00
2018-07-09T19:14:01.824Z,2.10
2018-07-09T19:19:04.487Z,1.67
2018-07-09T19:24:01.950Z,1.85
2018-07-09T19:28:58.342Z,2.05
2018-07-09T19:33:54.615Z,2.72
2018-07-09T19:38:51.234Z,1.87
2018-07-09T19:43:47.567Z,1.70
2018-07-09T19:48:43.843Z,2.00
2018-07-09T19:53:40.889Z,3.92
2018-07-09T19:58:37.071Z,3.15
2018-07-09T20:03:33.465Z,2.05
2018-07-09T20:08:35.663Z,2.60
2018-07-09T20:13:35.499Z,2.40
2018-07-09T20:18:32.071Z,2.15
2018-07-09T20:23:28.345Z,1.85
2018-07-09T20:28:25.253Z,2.10
2018-07-09T20:33:21.456Z,2.83
2018-07-09T20:38:17.879Z,3.40
2018-07-09T20:43:14.551Z,2.80
2018-07-09T20:48:11.243Z,2.10
2018-07-09T20:53:07.694Z,2.37
2018-07-09T20:58:04.166Z,2.00
2018-07-09T21:03:00.357Z,2.30
2018-07-09T21:07:56.943Z,2.35
2018-07-09T21:12:55.151Z,2.50
2018-07-09T21:17:51.703Z,2.52
2018-07-09T21:22:48.311Z,3.00
2018-07-09T21:27:45.317Z,2.30
2018-07-09T21:32:41.543Z,2.37
2018-07-09T21:37:38.079Z,2.40
2018-07-09T21:42:34.236Z,2.27
2018-07-09T21:47:30.919Z,2.30
2018-07-09T21:52:27.127Z,2.20
2018-07-09T21:57:23.718Z,2.20
2018-07-09T22:02:20.450Z,2.10
2018-07-09T22:07:17.009Z,2.42
2018-07-09T22:12:13.517Z,2.40
2018-07-09T22:17:09.712Z,2.27
2018-07-09T22:22:06.160Z,2.62
2018-07-09T22:27:02.886Z,2.50
2018-07-09T22:31:59.985Z,2.17
2018-07-09T22:36:56.949Z,2.33
2018-07-09T22:41:53.891Z,2.77
2018-07-09T22:46:50.731Z,2.20
2018-07-09T22:51:47.834Z,2.52
2018-07-09T22:56:44.592Z,2.50
2018-07-09T23:01:41.667Z,2.60
2018-07-09T23:06:38.570Z,2.70
2018-07-09T23:13:47.898Z,2.50
2018-07-09T23:19:00.617Z,2.73
2018-07-09T23:23:56.806Z,2.30
2018-07-09T23:28:54.294Z,2.70
2018-07-09T23:33:50.653Z,3.13
2018-07-09T23:38:47.133Z,2.93
2018-07-09T23:43:43.327Z,2.80
2018-07-09T23:48:39.834Z,2.83
2018-07-09T23:53:36.055Z,2.40
2018-07-09T23:58:40.389Z,2.90
